Time;durP1;ratioP1;P1;durP2;ratioP2;P2;SDS_P1;SDS_P2;PMS_P1;PMS_P2;Temp;Humidity;BMP_temperature;BMP_pressure;BME280_temperature;BME280_humidity;BME280_pressure;Samples;Min_cycle;Max_cycle;Signal;HPM_P1;HPM_P2
2022/09/30 00:01:12;;;;;;;5.75;3.47;;;;;;;;;;5009763;28;20081;-87
2022/09/30 00:03:38;;;;;;;7.20;3.55;;;;;;;;;;5012744;28;20049;-87
2022/09/30 00:06:05;;;;;;;6.78;3.70;;;;;;;;;;5008958;28;20049;-86
2022/09/30 00:08:32;;;;;;;4.95;3.20;;;;;;;;;;5007489;28;20096;-86
2022/09/30 00:10:59;;;;;;;5.00;3.45;;;;;;;;;;5014126;28;20072;-86
2022/09/30 00:13:25;;;;;;;5.65;3.60;;;;;;;;;;5014773;28;20042;-87
2022/09/30 00:15:51;;;;;;;5.38;3.72;;;;;;;;;;5013278;28;20050;-87
2022/09/30 00:18:17;;;;;;;5.47;3.60;;;;;;;;;;5015444;28;20049;-87
2022/09/30 00:20:43;;;;;;;6.00;4.30;;;;;;;;;;5013394;28;20502;-86
2022/09/30 00:23:09;;;;;;;7.15;4.55;;;;;;;;;;5013319;28;20042;-87
2022/09/30 00:25:35;;;;;;;6.82;4.35;;;;;;;;;;5012713;28;20046;-86
2022/09/30 00:28:01;;;;;;;6.80;4.20;;;;;;;;;;5014089;28;20046;-87
2022/09/30 00:30:27;;;;;;;6.15;4.28;;;;;;;;;;5013516;28;20540;-87
2022/09/30 00:32:53;;;;;;;7.03;4.50;;;;;;;;;;5005579;28;20041;-87
2022/09/30 00:35:20;;;;;;;6.07;4.88;;;;;;;;;;5012531;28;20038;-86
2022/09/30 00:37:46;;;;;;;9.27;5.97;;;;;;;;;;5014312;28;20046;-87
2022/09/30 00:40:12;;;;;;;9.65;5.13;;;;;;;;;;5011741;28;20502;-86
2022/09/30 00:42:41;;;;;;;6.40;4.82;;;;;;;;;;5011646;28;20046;-87
2022/09/30 00:45:10;;;;;;;7.45;4.55;;;;;;;;;;5013197;28;20042;-87
2022/09/30 00:47:36;;;;;;;8.43;5.15;;;;;;;;;;5008124;28;20391;-88
2022/09/30 00:50:13;;;;;;;7.53;4.93;;;;;;;;;;5015359;28;20067;-87
2022/09/30 00:52:40;;;;;;;6.53;5.00;;;;;;;;;;5005920;28;20395;-87
2022/09/30 00:55:08;;;;;;;6.10;4.32;;;;;;;;;;5004701;28;20049;-87
2022/09/30 00:57:35;;;;;;;6.65;4.68;;;;;;;;;;5005824;28;20092;-87
2022/09/30 01:00:01;;;;;;;7.25;4.57;;;;;;;;;;5011438;28;20034;-87
2022/09/30 01:02:28;;;;;;;6.20;5.00;;;;;;;;;;5012795;28;20045;-87
2022/09/30 01:04:55;;;;;;;8.10;5.15;;;;;;;;;;5013552;28;20388;-87
2022/09/30 01:07:23;;;;;;;10.52;6.13;;;;;;;;;;5011836;28;20038;-87
2022/09/30 01:09:50;;;;;;;7.38;4.75;;;;;;;;;;5012137;28;20062;-86
2022/09/30 01:12:18;;;;;;;7.68;5.20;;;;;;;;;;5011598;28;20046;-86
2022/09/30 01:14:45;;;;;;;8.65;5.65;;;;;;;;;;5009407;28;20447;-87
2022/09/30 01:17:15;;;;;;;7.70;4.97;;;;;;;;;;5012080;28;20049;-87
2022/09/30 01:19:56;;;;;;;6.65;5.35;;;;;;;;;;5012612;28;20050;-87
2022/09/30 01:22:40;;;;;;;7.05;5.38;;;;;;;;;;5013328;28;20107;-86
2022/09/30 01:25:06;;;;;;;6.82;4.90;;;;;;;;;;5010797;28;20042;-87
2022/09/30 01:27:32;;;;;;;8.23;5.05;;;;;;;;;;5012155;28;20077;-86
2022/09/30 01:30:25;;;;;;;7.43;4.50;;;;;;;;;;5009433;28;20453;-86
2022/09/30 01:32:52;;;;;;;7.60;5.35;;;;;;;;;;4992564;28;20522;-86
2022/09/30 01:35:36;;;;;;;7.00;5.07;;;;;;;;;;5009351;28;20407;-86
2022/09/30 01:38:20;;;;;;;9.88;5.65;;;;;;;;;;5011473;28;20049;-85
2022/09/30 01:40:58;;;;;;;6.70;4.68;;;;;;;;;;5043073;28;20050;-87
2022/09/30 01:43:40;;;;;;;6.88;4.88;;;;;;;;;;5010546;28;20042;-86
2022/09/30 01:46:21;;;;;;;7.40;5.28;;;;;;;;;;5012078;28;20428;-85
2022/09/30 01:48:59;;;;;;;6.85;5.55;;;;;;;;;;5011565;28;20049;-86
2022/09/30 01:51:34;;;;;;;7.85;5.70;;;;;;;;;;5010369;28;20052;-86
2022/09/30 01:54:12;;;;;;;8.55;5.38;;;;;;;;;;5005121;28;20515;-86
2022/09/30 01:56:41;;;;;;;7.32;5.57;;;;;;;;;;5006101;28;20042;-86
2022/09/30 01:59:10;;;;;;;7.35;5.75;;;;;;;;;;5010415;28;20042;-85
2022/09/30 02:01:39;;;;;;;7.63;5.50;;;;;;;;;;5013966;28;20145;-86
2022/09/30 02:04:11;;;;;;;8.63;6.60;;;;;;;;;;5011733;28;20048;-87
2022/09/30 02:06:42;;;;;;;7.35;5.47;;;;;;;;;;5010867;28;20041;-86
2022/09/30 02:09:14;;;;;;;9.02;6.65;;;;;;;;;;5012328;28;20099;-86
2022/09/30 02:11:41;;;;;;;7.95;6.47;;;;;;;;;;5042633;28;20519;-86
2022/09/30 02:14:07;;;;;;;9.80;6.05;;;;;;;;;;5013222;28;20050;-86
2022/09/30 02:16:38;;;;;;;10.18;6.63;;;;;;;;;;5010152;28;20129;-86
2022/09/30 02:19:28;;;;;;;8.05;6.70;;;;;;;;;;5012514;28;20050;-88
2022/09/30 02:22:00;;;;;;;10.38;6.55;;;;;;;;;;5013271;28;20428;-86
2022/09/30 02:24:30;;;;;;;9.57;6.75;;;;;;;;;;5012624;28;20038;-86
2022/09/30 02:26:58;;;;;;;9.85;7.97;;;;;;;;;;5002956;28;20042;-86
2022/09/30 02:29:27;;;;;;;11.98;8.40;;;;;;;;;;5011936;28;20096;-87
2022/09/30 02:31:56;;;;;;;12.60;9.25;;;;;;;;;;5012289;28;20046;-88
2022/09/30 02:34:24;;;;;;;11.13;9.88;;;;;;;;;;5010016;28;20480;-86
2022/09/30 02:37:16;;;;;;;11.55;8.77;;;;;;;;;;5011568;28;20096;-87
2022/09/30 02:39:51;;;;;;;8.95;7.57;;;;;;;;;;5009932;28;20049;-87
2022/09/30 02:42:19;;;;;;;10.57;8.93;;;;;;;;;;5011502;28;20053;-87
2022/09/30 02:44:50;;;;;;;9.57;8.48;;;;;;;;;;5012933;28;20046;-87
2022/09/30 02:47:24;;;;;;;9.23;8.15;;;;;;;;;;5010451;28;20042;-85
2022/09/30 02:49:55;;;;;;;11.63;8.30;;;;;;;;;;5012232;28;20054;-86
2022/09/30 02:52:40;;;;;;;10.05;7.88;;;;;;;;;;5010619;28;20042;-87
2022/09/30 02:55:22;;;;;;;9.23;7.20;;;;;;;;;;5011331;28;20046;-87
2022/09/30 02:57:57;;;;;;;9.10;7.95;;;;;;;;;;5008685;28;20048;-87
2022/09/30 03:00:23;;;;;;;11.50;8.15;;;;;;;;;;5011232;28;20551;-87
2022/09/30 03:02:51;;;;;;;9.57;7.60;;;;;;;;;;5012118;28;20092;-86
2022/09/30 03:05:17;;;;;;;9.85;7.10;;;;;;;;;;5011172;28;20042;-88
2022/09/30 03:07:43;;;;;;;8.27;7.10;;;;;;;;;;5013914;28;20049;-86
2022/09/30 03:10:13;;;;;;;10.25;7.80;;;;;;;;;;5014887;28;20046;-86
2022/09/30 03:12:53;;;;;;;9.05;7.13;;;;;;;;;;5015827;28;20470;-87
2022/09/30 03:15:25;;;;;;;53.83;9.32;;;;;;;;;;5016127;28;20030;-87
2022/09/30 03:17:51;;;;;;;;;;;;;;;;;;5015380;28;20099;-86
2022/09/30 03:20:32;;;;;;;8.45;7.15;;;;;;;;;;5015435;28;19921;-87
2022/09/30 03:23:19;;;;;;;9.77;7.47;;;;;;;;;;5014170;28;20431;-87
2022/09/30 03:26:07;;;;;;;9.98;7.10;;;;;;;;;;5008601;28;20049;-86
2022/09/30 03:28:42;;;;;;;7.78;6.93;;;;;;;;;;5007160;28;20046;-87
2022/09/30 03:31:08;;;;;;;7.68;6.55;;;;;;;;;;5015944;28;20053;-86
2022/09/30 03:33:34;;;;;;;7.95;6.35;;;;;;;;;;5014099;28;20045;-87
2022/09/30 03:36:19;;;;;;;10.32;7.18;;;;;;;;;;5014549;28;20053;-87
2022/09/30 03:38:53;;;;;;;48.35;8.32;;;;;;;;;;5019881;28;20060;-86
2022/09/30 03:41:24;;;;;;;223.80;11.52;;;;;;;;;;5016909;28;20046;-86
2022/09/30 03:43:50;;;;;;;;;;;;;;;;;;5017417;28;20049;-87
2022/09/30 03:46:35;;;;;;;99.47;9.20;;;;;;;;;;5014598;28;19922;-85
2022/09/30 03:49:03;;;;;;;135.60;9.00;;;;;;;;;;5010021;28;20049;-87
2022/09/30 03:51:30;;;;;;;109.28;9.48;;;;;;;;;;5014119;28;20104;-87
2022/09/30 03:53:58;;;;;;;206.05;11.25;;;;;;;;;;5013565;28;20057;-86
2022/09/30 03:56:25;;;;;;;123.20;9.15;;;;;;;;;;5004459;28;20041;-86
2022/09/30 03:58:51;;;;;;;107.13;9.00;;;;;;;;;;5014274;28;20052;-86
2022/09/30 04:01:20;;;;;;;81.57;7.45;;;;;;;;;;5014820;28;20049;-88
2022/09/30 04:03:46;;;;;;;112.32;8.55;;;;;;;;;;5014276;28;20147;-86
2022/09/30 04:06:13;;;;;;;50.13;6.70;;;;;;;;;;5013419;28;20546;-86
2022/09/30 04:08:39;;;;;;;108.43;8.15;;;;;;;;;;5015596;28;20048;-86
2022/09/30 04:11:05;;;;;;;62.50;7.45;;;;;;;;;;5014832;28;20057;-87
2022/09/30 04:13:31;;;;;;;67.97;8.15;;;;;;;;;;5014844;28;20042;-87
2022/09/30 04:15:57;;;;;;;79.43;8.88;;;;;;;;;;5009507;28;20123;-86
2022/09/30 04:18:23;;;;;;;45.97;7.00;;;;;;;;;;5011611;28;20042;-87
2022/09/30 04:20:49;;;;;;;36.38;6.90;;;;;;;;;;5014329;28;20045;-86
2022/09/30 04:23:16;;;;;;;58.20;7.72;;;;;;;;;;5009734;28;20508;-88
2022/09/30 04:25:42;;;;;;;66.20;7.38;;;;;;;;;;5013643;28;20121;-85
2022/09/30 04:28:08;;;;;;;75.47;6.22;;;;;;;;;;5013765;28;20084;-86
2022/09/30 04:30:37;;;;;;;93.63;6.75;;;;;;;;;;5013162;28;20037;-85
2022/09/30 04:33:03;;;;;;;51.00;6.82;;;;;;;;;;5013963;28;20117;-87
2022/09/30 04:35:29;;;;;;;88.30;7.13;;;;;;;;;;5009151;28;20137;-87
2022/09/30 04:37:55;;;;;;;72.95;6.47;;;;;;;;;;5012147;28;20093;-86
2022/09/30 04:40:21;;;;;;;32.22;6.60;;;;;;;;;;5014621;28;20099;-87
2022/09/30 04:42:47;;;;;;;12.93;4.72;;;;;;;;;;5013028;28;20103;-87
2022/09/30 04:45:13;;;;;;;14.00;4.68;;;;;;;;;;5013628;28;20129;-87
2022/09/30 04:47:46;;;;;;;11.48;4.68;;;;;;;;;;5010521;28;20045;-86
2022/09/30 04:50:12;;;;;;;10.75;4.30;;;;;;;;;;5014033;28;20050;-89
2022/09/30 04:52:41;;;;;;;11.93;5.60;;;;;;;;;;5013101;28;20092;-86
2022/09/30 04:55:08;;;;;;;11.70;5.43;;;;;;;;;;5007998;28;20046;-87
2022/09/30 04:57:34;;;;;;;10.73;4.90;;;;;;;;;;5011388;28;20550;-86
2022/09/30 05:00:01;;;;;;;5.90;5.30;;;;;;;;;;5012926;28;20468;-87
2022/09/30 05:02:27;;;;;;;6.45;4.35;;;;;;;;;;5008655;28;20124;-86
2022/09/30 05:04:54;;;;;;;5.95;5.30;;;;;;;;;;5011400;28;20042;-88
2022/09/30 05:07:20;;;;;;;6.30;5.10;;;;;;;;;;5018440;28;20700;-88
2022/09/30 05:09:46;;;;;;;19.33;5.63;;;;;;;;;;5015535;28;20104;-88
2022/09/30 05:12:14;;;;;;;8.30;5.43;;;;;;;;;;5013715;28;20054;-87
2022/09/30 05:14:40;;;;;;;18.85;6.10;;;;;;;;;;5010483;28;20068;-86
2022/09/30 05:17:07;;;;;;;18.48;6.20;;;;;;;;;;5013703;28;20103;-87
2022/09/30 05:19:33;;;;;;;78.13;7.53;;;;;;;;;;5009536;28;20484;-90
2022/09/30 05:21:59;;;;;;;48.42;7.22;;;;;;;;;;5009355;28;20050;-88
2022/09/30 05:24:25;;;;;;;101.80;8.40;;;;;;;;;;5007792;28;20050;-88
2022/09/30 05:26:51;;;;;;;89.18;8.43;;;;;;;;;;5002310;28;20046;-88
2022/09/30 05:29:17;;;;;;;113.43;8.63;;;;;;;;;;5033878;28;20062;-87
2022/09/30 05:31:43;;;;;;;44.72;8.65;;;;;;;;;;5000147;28;20045;-87
2022/09/30 05:34:09;;;;;;;25.63;8.68;;;;;;;;;;5007955;28;20587;-87
2022/09/30 05:36:35;;;;;;;43.50;9.20;;;;;;;;;;5004220;28;20069;-87
2022/09/30 05:39:02;;;;;;;60.63;10.80;;;;;;;;;;5003501;28;20056;-87
2022/09/30 05:41:28;;;;;;;75.20;10.20;;;;;;;;;;5001517;28;20046;-88
2022/09/30 05:43:54;;;;;;;65.20;10.05;;;;;;;;;;5003425;28;20046;-88
2022/09/30 05:46:20;;;;;;;74.88;11.82;;;;;;;;;;5002483;28;20037;-86
2022/09/30 05:48:46;;;;;;;77.97;11.60;;;;;;;;;;5001411;28;20168;-87
2022/09/30 05:51:13;;;;;;;129.25;11.07;;;;;;;;;;5003257;28;20052;-88
2022/09/30 05:53:40;;;;;;;114.88;9.98;;;;;;;;;;5006119;28;20129;-88
2022/09/30 05:56:07;;;;;;;84.70;9.63;;;;;;;;;;5008041;28;20165;-87
2022/09/30 05:58:33;;;;;;;17.42;8.63;;;;;;;;;;5004809;28;20038;-87
2022/09/30 06:01:05;;;;;;;42.78;8.32;;;;;;;;;;5004658;28;20041;-86
2022/09/30 06:03:31;;;;;;;26.33;8.45;;;;;;;;;;5009848;28;20045;-87
2022/09/30 06:05:57;;;;;;;34.10;8.23;;;;;;;;;;5010731;28;20071;-87
2022/09/30 06:08:24;;;;;;;11.27;7.20;;;;;;;;;;5012742;28;20038;-87
2022/09/30 06:10:50;;;;;;;9.02;7.30;;;;;;;;;;5010144;28;20157;-88
2022/09/30 06:13:16;;;;;;;10.55;7.65;;;;;;;;;;5012844;28;20046;-88
2022/09/30 06:15:43;;;;;;;10.30;6.70;;;;;;;;;;5010496;28;20050;-88
2022/09/30 06:18:09;;;;;;;10.35;7.20;;;;;;;;;;5006693;28;20050;-88
2022/09/30 06:20:38;;;;;;;7.57;6.78;;;;;;;;;;5004217;28;20061;-88
2022/09/30 06:23:04;;;;;;;9.25;8.35;;;;;;;;;;5008774;28;20447;-87
2022/09/30 06:25:33;;;;;;;8.45;7.60;;;;;;;;;;5011271;28;20046;-87
2022/09/30 06:28:00;;;;;;;8.50;7.15;;;;;;;;;;5009105;28;20052;-88
2022/09/30 06:35:34;;;;;;;8.93;8.02;;;;;;;;;;5047506;28;20070;-86
2022/09/30 06:38:00;;;;;;;9.13;8.18;;;;;;;;;;5046976;28;20422;-86
2022/09/30 06:40:26;;;;;;;11.90;10.70;;;;;;;;;;5045734;28;20052;-86
2022/09/30 06:43:05;;;;;;;11.70;10.50;;;;;;;;;;5101922;22;20110;-87
2022/09/30 06:45:53;;;;;;;12.80;11.45;;;;;;;;;;5055135;28;20053;-87
2022/09/30 06:51:12;;;;;;;11.95;9.48;;;;;;;;;;5040655;28;20072;-87
2022/09/30 06:53:39;;;;;;;9.50;8.55;;;;;;;;;;5058746;28;20040;-87
2022/09/30 06:56:05;;;;;;;9.35;8.35;;;;;;;;;;5046462;28;20045;-87
2022/09/30 06:58:31;;;;;;;11.15;8.43;;;;;;;;;;5033247;28;20495;-87
2022/09/30 07:01:02;;;;;;;9.93;7.57;;;;;;;;;;5031311;28;20046;-87
2022/09/30 07:03:29;;;;;;;8.88;6.95;;;;;;;;;;5048627;28;20163;-87
2022/09/30 07:05:57;;;;;;;8.52;6.43;;;;;;;;;;5038446;28;20103;-88
2022/09/30 07:08:24;;;;;;;7.53;6.45;;;;;;;;;;5050039;28;20075;-87
2022/09/30 07:10:51;;;;;;;8.05;6.57;;;;;;;;;;5050805;28;20045;-90
2022/09/30 07:13:17;;;;;;;7.63;6.68;;;;;;;;;;5025662;28;20052;-88
2022/09/30 07:15:43;;;;;;;9.15;6.63;;;;;;;;;;5075261;28;20041;-87
2022/09/30 07:18:09;;;;;;;7.53;5.97;;;;;;;;;;5060160;28;20052;-87
2022/09/30 07:20:35;;;;;;;9.00;6.90;;;;;;;;;;5058450;28;20041;-88
2022/09/30 07:23:01;;;;;;;7.95;6.00;;;;;;;;;;5072059;28;20033;-87
2022/09/30 07:25:27;;;;;;;8.00;6.28;;;;;;;;;;5058505;28;20049;-88
2022/09/30 07:27:55;;;;;;;8.07;5.95;;;;;;;;;;5065005;28;20513;-88
2022/09/30 07:30:21;;;;;;;7.50;6.18;;;;;;;;;;5057221;28;20526;-88
2022/09/30 07:32:47;;;;;;;7.75;5.75;;;;;;;;;;5043879;28;20072;-87
2022/09/30 07:35:13;;;;;;;8.25;5.88;;;;;;;;;;5031269;28;20048;-87
2022/09/30 07:37:39;;;;;;;7.72;6.45;;;;;;;;;;5038617;28;20521;-88
2022/09/30 07:40:06;;;;;;;8.00;6.53;;;;;;;;;;5055393;28;20049;-88
2022/09/30 07:42:33;;;;;;;10.45;7.18;;;;;;;;;;5046425;28;20128;-87
2022/09/30 07:45:00;;;;;;;10.13;7.00;;;;;;;;;;5037127;28;20045;-87
2022/09/30 07:47:27;;;;;;;10.20;7.25;;;;;;;;;;5000566;28;20128;-87
2022/09/30 07:49:53;;;;;;;7.82;5.68;;;;;;;;;;5032941;28;20044;-87
2022/09/30 07:52:19;;;;;;;10.10;7.63;;;;;;;;;;5036625;28;20068;-87
2022/09/30 07:54:45;;;;;;;11.20;7.75;;;;;;;;;;5037856;28;20070;-87
2022/09/30 07:57:11;;;;;;;9.63;8.13;;;;;;;;;;5031472;28;20057;-87
2022/09/30 07:59:38;;;;;;;10.23;7.82;;;;;;;;;;5022580;28;20065;-87
2022/09/30 08:02:06;;;;;;;11.30;8.50;;;;;;;;;;5020944;28;20088;-87
2022/09/30 08:04:32;;;;;;;13.88;10.02;;;;;;;;;;5017171;28;20053;-88
2022/09/30 08:06:59;;;;;;;14.13;11.75;;;;;;;;;;5029559;28;20129;-88
2022/09/30 08:09:26;;;;;;;16.40;12.95;;;;;;;;;;5036821;28;20077;-87
2022/09/30 08:11:53;;;;;;;15.52;12.90;;;;;;;;;;5032542;28;20488;-86
2022/09/30 08:14:26;;;;;;;16.33;13.38;;;;;;;;;;5055843;28;20021;-86
2022/09/30 08:16:52;;;;;;;14.68;12.38;;;;;;;;;;5059665;28;20033;-86
2022/09/30 08:19:23;;;;;;;14.52;12.35;;;;;;;;;;5059762;28;20085;-86
2022/09/30 08:21:51;;;;;;;13.98;11.80;;;;;;;;;;5050145;28;20046;-86
2022/09/30 08:24:17;;;;;;;14.60;12.13;;;;;;;;;;5036062;28;20049;-86
2022/09/30 08:26:43;;;;;;;18.83;15.10;;;;;;;;;;5054032;28;20060;-86
2022/09/30 08:29:12;;;;;;;20.25;12.80;;;;;;;;;;5039297;28;20053;-87
2022/09/30 08:31:38;;;;;;;15.32;12.07;;;;;;;;;;5059435;28;20047;-86
2022/09/30 08:34:04;;;;;;;14.73;11.40;;;;;;;;;;5041449;28;20044;-86
2022/09/30 08:36:30;;;;;;;30.80;12.77;;;;;;;;;;5051246;28;20037;-86
2022/09/30 08:38:57;;;;;;;16.23;12.18;;;;;;;;;;5040042;28;20034;-85
2022/09/30 08:41:38;;;;;;;15.82;11.73;;;;;;;;;;5037619;28;20081;-85
2022/09/30 08:44:11;;;;;;;14.85;11.77;;;;;;;;;;5040049;28;20030;-85
2022/09/30 08:46:37;;;;;;;15.55;12.30;;;;;;;;;;5019161;28;20025;-85
2022/09/30 08:49:13;;;;;;;15.60;11.10;;;;;;;;;;5049851;28;20049;-87
2022/09/30 08:51:43;;;;;;;14.02;10.38;;;;;;;;;;5059338;28;20040;-86
2022/09/30 08:54:13;;;;;;;14.23;11.32;;;;;;;;;;5041627;28;20038;-85
2022/09/30 08:56:39;;;;;;;15.23;11.30;;;;;;;;;;5048817;28;20021;-85
2022/09/30 08:59:05;;;;;;;14.30;11.23;;;;;;;;;;5056419;28;20155;-85
2022/09/30 09:01:36;;;;;;;13.13;10.77;;;;;;;;;;5056727;28;20042;-85
2022/09/30 09:04:03;;;;;;;17.90;10.73;;;;;;;;;;5055823;28;20040;-85
2022/09/30 09:06:49;;;;;;;13.32;10.48;;;;;;;;;;5027421;28;20063;-85
2022/09/30 09:09:28;;;;;;;13.88;10.55;;;;;;;;;;5057567;28;20100;-85
2022/09/30 09:12:00;;;;;;;14.00;10.63;;;;;;;;;;5051035;28;20057;-85
2022/09/30 09:14:38;;;;;;;14.93;11.50;;;;;;;;;;5056962;28;20052;-85
2022/09/30 09:17:06;;;;;;;12.15;9.70;;;;;;;;;;5041362;28;20037;-85
2022/09/30 09:19:58;;;;;;;17.05;11.48;;;;;;;;;;5058626;28;20057;-85
2022/09/30 09:22:25;;;;;;;13.40;10.75;;;;;;;;;;5055113;28;20094;-84
2022/09/30 09:24:53;;;;;;;13.70;9.65;;;;;;;;;;5038192;28;20041;-85
2022/09/30 09:27:37;;;;;;;13.80;9.05;;;;;;;;;;5038261;28;20102;-85
2022/09/30 09:30:08;;;;;;;12.10;8.55;;;;;;;;;;5038174;28;20026;-85
2022/09/30 09:32:35;;;;;;;11.05;9.15;;;;;;;;;;5048338;28;20536;-85
2022/09/30 09:35:15;;;;;;;14.30;8.40;;;;;;;;;;5038644;28;20022;-85
2022/09/30 09:40:41;;;;;;;12.32;7.40;;;;;;;;;;5020994;28;20045;-86
2022/09/30 09:43:18;;;;;;;10.05;7.50;;;;;;;;;;5038202;28;20049;-85
2022/09/30 09:45:44;;;;;;;10.00;7.35;;;;;;;;;;5038501;28;20026;-85
2022/09/30 09:48:11;;;;;;;8.38;7.05;;;;;;;;;;5052032;28;20074;-85
2022/09/30 09:50:43;;;;;;;8.48;6.10;;;;;;;;;;5057470;28;20056;-86
2022/09/30 09:53:23;;;;;;;8.00;5.80;;;;;;;;;;5037603;28;20033;-85
2022/09/30 09:55:53;;;;;;;7.13;5.13;;;;;;;;;;5041728;28;20036;-85
2022/09/30 09:58:20;;;;;;;7.28;5.07;;;;;;;;;;5038781;28;20026;-85
2022/09/30 10:03:18;;;;;;;7.13;5.38;;;;;;;;;;5051693;28;20133;-86
2022/09/30 10:05:46;;;;;;;7.82;5.70;;;;;;;;;;5024591;28;20049;-85
2022/09/30 10:08:17;;;;;;;8.07;5.53;;;;;;;;;;5041789;28;20050;-84
2022/09/30 10:10:50;;;;;;;7.07;4.95;;;;;;;;;;5050324;28;20041;-84
2022/09/30 10:13:27;;;;;;;9.77;5.40;;;;;;;;;;5036640;28;20090;-86
2022/09/30 10:16:00;;;;;;;7.38;4.85;;;;;;;;;;5035722;28;20038;-85
2022/09/30 10:18:28;;;;;;;7.57;4.82;;;;;;;;;;5056895;28;20033;-85
2022/09/30 10:20:56;;;;;;;7.75;5.10;;;;;;;;;;5054710;28;20077;-85
2022/09/30 10:23:26;;;;;;;7.22;4.57;;;;;;;;;;5034584;28;20045;-85
2022/09/30 10:25:56;;;;;;;6.20;4.32;;;;;;;;;;5035707;28;20034;-84
2022/09/30 10:28:24;;;;;;;8.15;4.70;;;;;;;;;;5034245;28;20054;-83
2022/09/30 10:30:53;;;;;;;6.10;4.47;;;;;;;;;;5011872;28;20053;-84
2022/09/30 10:33:26;;;;;;;7.78;4.68;;;;;;;;;;5017220;28;20086;-84
2022/09/30 10:36:15;;;;;;;6.45;5.32;;;;;;;;;;5012272;28;20077;-85
2022/09/30 10:38:46;;;;;;;8.23;5.75;;;;;;;;;;5002893;28;20034;-85
2022/09/30 10:41:12;;;;;;;7.63;5.57;;;;;;;;;;5033817;28;20045;-86
2022/09/30 10:43:49;;;;;;;9.00;6.15;;;;;;;;;;4995691;28;20054;-85
2022/09/30 10:46:27;;;;;;;8.05;6.03;;;;;;;;;;5012300;28;20497;-86
2022/09/30 10:48:54;;;;;;;7.63;5.03;;;;;;;;;;5013991;28;20053;-85
2022/09/30 10:51:25;;;;;;;7.53;5.70;;;;;;;;;;5028445;28;20144;-84
2022/09/30 10:53:51;;;;;;;9.00;6.13;;;;;;;;;;5030618;28;20042;-84
2022/09/30 10:56:31;;;;;;;8.40;6.22;;;;;;;;;;5035803;28;20053;-85
2022/09/30 10:58:57;;;;;;;8.40;5.82;;;;;;;;;;5029949;28;20137;-85
2022/09/30 11:01:23;;;;;;;9.27;6.38;;;;;;;;;;5042618;28;20097;-85
2022/09/30 11:04:01;;;;;;;7.90;5.93;;;;;;;;;;5051726;28;20040;-85
2022/09/30 11:06:30;;;;;;;10.52;6.85;;;;;;;;;;5055721;28;20052;-86
2022/09/30 11:09:01;;;;;;;8.13;6.57;;;;;;;;;;5030368;28;20058;-85
2022/09/30 11:11:32;;;;;;;10.02;7.78;;;;;;;;;;5030655;28;20050;-86
2022/09/30 11:14:05;;;;;;;9.88;8.63;;;;;;;;;;5030692;28;20061;-85
2022/09/30 11:16:49;;;;;;;12.10;8.60;;;;;;;;;;5047365;28;20527;-85
2022/09/30 11:19:34;;;;;;;11.95;7.85;;;;;;;;;;5035522;28;20038;-85
2022/09/30 11:22:14;;;;;;;10.23;8.05;;;;;;;;;;5047447;28;20042;-85
2022/09/30 11:24:43;;;;;;;9.50;8.02;;;;;;;;;;5013902;28;20507;-86
2022/09/30 11:27:21;;;;;;;10.82;8.55;;;;;;;;;;5009790;28;20045;-86
2022/09/30 11:29:50;;;;;;;10.13;7.85;;;;;;;;;;5031046;28;20196;-86
2022/09/30 11:32:28;;;;;;;12.93;8.95;;;;;;;;;;5019041;28;20050;-86
2022/09/30 11:35:13;;;;;;;9.90;7.53;;;;;;;;;;5036253;28;20030;-85
2022/09/30 11:37:52;;;;;;;9.57;7.38;;;;;;;;;;5049068;28;20029;-86
2022/09/30 11:40:18;;;;;;;10.25;7.45;;;;;;;;;;5054245;28;20046;-85
2022/09/30 11:42:56;;;;;;;9.63;7.13;;;;;;;;;;5022033;28;20060;-84
2022/09/30 11:45:25;;;;;;;10.10;7.47;;;;;;;;;;5040017;28;20045;-86
2022/09/30 11:48:10;;;;;;;9.75;6.60;;;;;;;;;;5039786;28;20060;-84
2022/09/30 11:50:39;;;;;;;10.07;6.95;;;;;;;;;;5057353;28;20044;-84
2022/09/30 11:53:14;;;;;;;9.05;6.28;;;;;;;;;;5018329;28;20046;-85
2022/09/30 11:55:45;;;;;;;10.63;7.28;;;;;;;;;;5029661;28;20049;-84
2022/09/30 11:58:17;;;;;;;9.10;7.10;;;;;;;;;;5021767;28;20042;-86
2022/09/30 12:00:46;;;;;;;12.00;6.30;;;;;;;;;;5031769;28;20045;-85
2022/09/30 12:03:16;;;;;;;10.95;6.68;;;;;;;;;;5040283;28;20045;-85
2022/09/30 12:06:09;;;;;;;10.03;7.47;;;;;;;;;;5045700;28;20133;-83
2022/09/30 12:08:37;;;;;;;11.35;9.10;;;;;;;;;;5023275;28;20056;-84
2022/09/30 12:11:11;;;;;;;11.23;8.63;;;;;;;;;;5030839;28;20081;-85
2022/09/30 12:13:43;;;;;;;12.20;9.65;;;;;;;;;;5026057;28;20324;-85
2022/09/30 12:16:14;;;;;;;9.80;7.97;;;;;;;;;;5028363;28;20049;-85
2022/09/30 12:18:42;;;;;;;11.18;6.88;;;;;;;;;;5030066;28;20060;-85
2022/09/30 12:21:23;;;;;;;12.25;8.00;;;;;;;;;;5045410;28;20050;-86
2022/09/30 12:23:53;;;;;;;12.40;9.77;;;;;;;;;;5052332;28;20045;-85
2022/09/30 12:26:19;;;;;;;12.73;10.75;;;;;;;;;;5049502;28;20053;-85
2022/09/30 12:31:51;;;;;;;14.60;12.45;;;;;;;;;;5033075;28;20057;-85
2022/09/30 12:34:26;;;;;;;14.35;12.10;;;;;;;;;;5052048;28;20025;-85
2022/09/30 12:37:15;;;;;;;15.45;10.80;;;;;;;;;;5033584;28;20029;-85
2022/09/30 12:39:50;;;;;;;14.98;11.43;;;;;;;;;;5034995;28;20500;-84
2022/09/30 12:42:16;;;;;;;14.10;12.27;;;;;;;;;;5030044;28;20061;-85
2022/09/30 12:44:54;;;;;;;14.85;11.73;;;;;;;;;;5035646;28;20106;-84
2022/09/30 12:47:44;;;;;;;14.18;11.75;;;;;;;;;;5044346;28;20081;-84
2022/09/30 12:50:12;;;;;;;13.27;10.93;;;;;;;;;;5031440;28;20117;-84
2022/09/30 12:52:38;;;;;;;16.08;11.55;;;;;;;;;;5030305;28;20380;-85
2022/09/30 12:55:12;;;;;;;13.73;10.60;;;;;;;;;;5045432;28;20037;-84
2022/09/30 12:57:41;;;;;;;13.27;11.15;;;;;;;;;;5046942;28;20045;-86
2022/09/30 13:00:13;;;;;;;12.25;10.95;;;;;;;;;;5027805;28;20042;-85
2022/09/30 13:02:44;;;;;;;14.35;10.85;;;;;;;;;;5024182;28;20054;-85
2022/09/30 13:05:29;;;;;;;11.40;9.20;;;;;;;;;;5034907;28;20061;-85
2022/09/30 13:08:04;;;;;;;11.35;9.38;;;;;;;;;;5013777;28;20109;-86
2022/09/30 13:10:31;;;;;;;11.85;9.43;;;;;;;;;;5032160;28;20053;-84
2022/09/30 13:13:09;;;;;;;13.07;10.27;;;;;;;;;;5038586;28;20459;-84
2022/09/30 13:15:35;;;;;;;11.88;9.93;;;;;;;;;;5021967;28;20049;-84
2022/09/30 13:18:20;;;;;;;13.00;10.63;;;;;;;;;;5030621;28;20054;-84
2022/09/30 13:20:55;;;;;;;13.48;10.30;;;;;;;;;;5012111;28;20411;-85
2022/09/30 13:23:39;;;;;;;13.27;10.63;;;;;;;;;;5023619;28;20049;-84
2022/09/30 13:26:24;;;;;;;12.13;10.82;;;;;;;;;;5039011;28;20045;-85
2022/09/30 13:28:51;;;;;;;12.23;9.88;;;;;;;;;;5031745;28;20116;-86
2022/09/30 13:31:21;;;;;;;13.00;11.57;;;;;;;;;;5052314;28;20042;-85
2022/09/30 13:33:47;;;;;;;13.27;10.40;;;;;;;;;;5050292;28;20044;-85
2022/09/30 13:36:17;;;;;;;14.00;11.07;;;;;;;;;;5003487;28;20475;-84
2022/09/30 13:38:44;;;;;;;12.25;9.90;;;;;;;;;;5043444;28;20081;-85
2022/09/30 13:41:16;;;;;;;12.80;11.35;;;;;;;;;;5018782;28;20050;-85
2022/09/30 13:43:43;;;;;;;13.20;11.80;;;;;;;;;;5023612;28;20362;-85
2022/09/30 13:46:17;;;;;;;12.00;10.80;;;;;;;;;;5015202;28;20057;-85
2022/09/30 13:49:03;;;;;;;13.00;10.70;;;;;;;;;;5019977;28;20045;-85
2022/09/30 13:51:32;;;;;;;13.30;10.27;;;;;;;;;;5017228;28;20057;-85
2022/09/30 13:54:02;;;;;;;11.52;10.30;;;;;;;;;;5026902;28;20163;-85
2022/09/30 13:56:33;;;;;;;12.10;10.90;;;;;;;;;;5028802;28;20126;-86
2022/09/30 13:59:09;;;;;;;11.85;10.27;;;;;;;;;;5046252;28;20036;-85
2022/09/30 14:01:36;;;;;;;11.65;10.45;;;;;;;;;;5034945;28;20049;-86
2022/09/30 14:04:05;;;;;;;12.93;11.55;;;;;;;;;;5052160;28;20049;-85
2022/09/30 14:06:31;;;;;;;13.60;10.93;;;;;;;;;;5037311;28;20053;-85
2022/09/30 14:09:13;;;;;;;11.98;10.63;;;;;;;;;;5054844;28;20161;-85
2022/09/30 14:11:49;;;;;;;13.18;10.77;;;;;;;;;;5054303;28;20041;-85
2022/09/30 14:14:34;;;;;;;12.48;10.85;;;;;;;;;;5039150;28;20041;-85
2022/09/30 14:17:22;;;;;;;15.90;12.30;;;;;;;;;;5032919;28;20048;-85
2022/09/30 14:19:57;;;;;;;12.60;11.05;;;;;;;;;;5022627;28;20050;-86
2022/09/30 14:22:25;;;;;;;16.63;11.50;;;;;;;;;;5029477;28;20049;-83
2022/09/30 14:24:52;;;;;;;13.10;11.70;;;;;;;;;;5030265;28;20092;-86
2022/09/30 14:27:36;;;;;;;14.15;12.32;;;;;;;;;;5023252;28;20550;-86
2022/09/30 14:30:11;;;;;;;14.52;11.18;;;;;;;;;;5019271;28;20353;-86
2022/09/30 14:32:45;;;;;;;13.20;11.77;;;;;;;;;;5023112;28;20090;-87
2022/09/30 14:35:20;;;;;;;13.63;12.10;;;;;;;;;;5019030;28;20050;-85
2022/09/30 14:38:06;;;;;;;12.93;11.63;;;;;;;;;;5011791;28;20441;-86
2022/09/30 14:40:33;;;;;;;16.95;12.05;;;;;;;;;;5036760;28;20034;-84
2022/09/30 14:43:02;;;;;;;15.20;11.50;;;;;;;;;;5033863;28;20061;-85
2022/09/30 14:45:33;;;;;;;13.85;11.13;;;;;;;;;;5019323;28;20096;-85
2022/09/30 14:48:05;;;;;;;12.25;11.00;;;;;;;;;;5023475;28;20089;-85
2022/09/30 14:50:36;;;;;;;12.70;11.15;;;;;;;;;;5052625;28;20053;-86
2022/09/30 14:53:02;;;;;;;;;;;;;;;;;;5032710;28;20113;-86
2022/09/30 14:55:33;;;;;;;12.77;11.48;;;;;;;;;;5027462;28;19925;-86
2022/09/30 14:58:18;;;;;;;12.73;11.18;;;;;;;;;;5023775;28;20121;-86
2022/09/30 15:00:46;;;;;;;13.80;11.65;;;;;;;;;;5022947;28;20041;-84
2022/09/30 15:03:13;;;;;;;13.23;11.93;;;;;;;;;;5021792;28;20408;-84
2022/09/30 15:05:39;;;;;;;12.98;11.65;;;;;;;;;;5038636;28;20094;-84
2022/09/30 15:08:18;;;;;;;13.70;11.63;;;;;;;;;;5043210;28;20066;-85